• Join FlightAware (Why Join?)
  • Login
  • US Flag 
01:43AM EDT


 

Airport Tracker/Info


-or-


 

Live Flight TrackerFlight Track Log ✈ JZA8761 ✈ 23-Feb-2014 ✈ CYUL - CYUY

Flight Track Log - Related Links

Times and Time Zones

All times are in EST time to prevent confusion due to time zone crossing. See the JZA8761 flight status page for this flight to view local times or setup timezone preferences in your user account.

Time Position Orientation Groundspeed Altitude Reporting Facility
EST Latitude Longitude Course Direction KTS MPH feet Rate Location/Type
09:21PM 45.4500 -73.7500 301° West 50 58 600  Level Montreal Center
09:22PM 45.4667 -73.8000 295° West 130 150 2,400 1,680 Climbing Montreal Center
09:23PM 45.5000 -73.8167 341° North 120 138 4,000 1,500 Climbing Montreal Center
09:24PM 45.5000 -73.8667 270° West 130 150 5,400 1,500 Climbing Montreal Center
09:25PM 45.5780 -74.0672 296° West  Level FlightAware Approximate
09:25PM 45.5333 -73.9167 314° West 150 173 7,000  Level Montreal Center
09:26PM 45.6079 -74.1492 306° West  Level FlightAware Approximate
09:26PM 45.5500 -73.9833 290° West 150 173 8,500  Level Montreal Center
09:27PM 45.6478 -74.2154 306° West  Level Estimated
09:27PM 45.5833 -74.0333 314° West 140 161 10,000  Level Montreal Center
09:28PM 45.6876 -74.2816 301° West  Level Estimated
09:28PM 45.6000 -74.0833 295° West 140 161 11,500  Level Montreal Center
09:29PM 45.6167 -74.1167 306° West 140 161 13,000 1,440 Climbing Montreal Center
09:30PM 45.6333 -74.1667 296° West 140 161 14,400 1,440 Climbing Montreal Center
09:31PM 45.6667 -74.2167 314° West 150 173 15,900 1,200 Climbing Montreal Center
09:32PM 45.7000 -74.2667 314° West 160 184 16,800 1,020 Climbing Montreal Center
09:33PM 45.7167 -74.3167 296° West 180 207 18,000 1,080 Climbing Montreal Center
09:34PM 45.7500 -74.3833 306° West 180 207 19,000 960 Climbing Montreal Center
09:35PM 45.7833 -74.4333 314° West 190 219 20,000 960 Climbing Montreal Center
09:36PM 45.8167 -74.5000 306° West 190 219 21,000 960 Climbing Montreal Center
09:37PM 45.8500 -74.5500 314° West 190 219 22,000 900 Climbing Montreal Center
09:38PM 45.8833 -74.6167 306° West 190 219 22,800 900 Climbing Montreal Center
09:39PM 45.9000 -74.6667 296° West 180 207 23,800 600 Climbing Montreal Center
09:40PM 45.9333 -74.7333 306° West 200 230 24,000 60 Climbing Montreal Center
09:41PM 45.9833 -74.7833 325° Northwest 220 253 24,000  Level Montreal Center
09:42PM 46.0167 -74.8500 306° West 230 265 24,000  Level Montreal Center
09:43PM 46.0500 -74.9500 296° West 240 276 24,000  Level Montreal Center
09:44PM 46.1000 -75.0167 317° Northwest 240 276 24,000  Level Montreal Center
09:45PM 46.1500 -75.1000 311° West 240 276 24,000  Level Montreal Center
09:46PM 46.1833 -75.1667 306° West 240 276 24,000  Level Montreal Center
09:47PM 46.2333 -75.2667 306° West 240 276 24,000  Level Montreal Center
09:48PM 46.2667 -75.3333 306° West 240 276 24,000  Level Montreal Center
09:49PM 46.3167 -75.4167 311° West 240 276 24,000  Level Montreal Center
09:50PM 46.3500 -75.5000 300° West 240 276 24,000  Level Montreal Center
09:51PM 46.4000 -75.5833 311° West 250 288 24,000  Level Montreal Center
09:52PM 46.4333 -75.6500 306° West 250 288 24,000  Level Montreal Center
09:53PM 46.4833 -75.7167 317° Northwest 240 276 24,000  Level Montreal Center
09:54PM 46.5167 -75.8000 300° West 250 288 24,000  Level Montreal Center
09:55PM 46.5500 -75.9000 296° West 250 288 24,000  Level Montreal Center
09:56PM 46.6000 -75.9667 318° Northwest 250 288 24,000  Level Montreal Center
09:57PM 46.6333 -76.0667 296° West 250 288 24,000  Level Montreal Center
09:58PM 46.6833 -76.1333 318° Northwest 240 276 24,000  Level Montreal Center
09:59PM 46.7167 -76.2167 300° West 240 276 24,000  Level Montreal Center
10:00PM 46.7667 -76.2833 318° Northwest 250 288 24,000  Level Montreal Center
10:01PM 46.8000 -76.3667 300° West 240 276 24,000  Level Montreal Center
10:02PM 46.8500 -76.4500 311° West 240 276 24,000  Level Montreal Center
10:03PM 46.8833 -76.5333 300° West 240 276 24,000  Level Montreal Center
10:04PM 46.9167 -76.6000 306° West 250 288 24,000  Level Montreal Center
10:05PM 46.9667 -76.7000 306° West 240 276 24,000  Level Montreal Center
10:06PM 47.0167 -76.7833 311° West 250 288 24,000  Level Montreal Center
10:07PM 47.0500 -76.8500 306° West 250 288 24,000  Level Montreal Center
10:08PM 47.0833 -76.9333 300° West 250 288 24,000  Level Montreal Center
10:09PM 47.1333 -77.0333 306° West 240 276 24,000  Level Montreal Center
10:10PM 47.1667 -77.1000 306° West 240 276 24,000  Level Montreal Center
10:11PM 47.2167 -77.1833 311° West 250 288 24,000  Level Montreal Center
10:12PM 47.2500 -77.2500 306° West 240 276 24,000  Level Montreal Center
10:13PM 47.2833 -77.3500 296° West 240 276 24,000  Level Montreal Center
10:14PM 47.3333 -77.4333 312° West 240 276 24,000  Level Montreal Center
10:15PM 47.3667 -77.5000 306° West 240 276 24,000  Level Montreal Center
10:16PM 47.4167 -77.5833 312° West 250 288 24,000  Level Montreal Center
10:17PM 47.4333 -77.6833 284° West 240 276 24,000 -300 Level Montreal Center
10:18PM 47.4833 -77.7333 326° Northwest 250 288 23,400 -960 Descending Montreal Center
10:19PM 47.5500 -77.8000 326° Northwest 270 311 22,100 -1,260 Descending Montreal Center
10:20PM 47.6167 -77.8667 326° Northwest 280 322 20,900 -1,380 Descending Montreal Center
10:21PM 47.6833 -77.9333 326° Northwest 270 311 19,400 -1,380 Descending Montreal Center
10:22PM 47.7333 -77.9833 326° Northwest 260 299 18,200 -1,500 Descending Montreal Center
10:23PM 47.8000 -78.0500 326° Northwest 260 299 16,500 -1,500 Descending Montreal Center
10:24PM 47.8667 -78.1167 326° Northwest 270 311 15,200 -1,440 Descending Montreal Center
10:25PM 47.9333 -78.1667 333° Northwest 270 311 13,700 -1,500 Descending Montreal Center
10:26PM 48.0000 -78.2500 320° Northwest 270 311 12,300 -1,500 Descending Montreal Center
10:27PM 48.0500 -78.3000 326° Northwest 260 299 10,800 -1,440 Descending Montreal Center
10:28PM 48.1167 -78.3833 320° Northwest 250 288 9,500 -1,320 Descending Montreal Center
10:30PM 48.1841 -78.4233 318° Northwest  Level FlightAware Approximate
10:37PM 48.2000 -78.8333 249° West  Level FlightAware Approximate
10:38PM 48.2061 -78.8356 249° West  Level Estimated
10:39PM 48.2000 -78.8333 249° West  Level FlightAware Approximate
10:40PM 48.2061 -78.8356 249° West  Level Estimated
10:41PM 48.2000 -78.8333 249° West  Level FlightAware Approximate
10:42PM 48.2061 -78.8356 249° West  Level Estimated